Time;durP1;ratioP1;P1;durP2;ratioP2;P2;SDS_P1;SDS_P2;PMS_P1;PMS_P2;Temp;Humidity;BMP_temperature;BMP_pressure;BME280_temperature;BME280_humidity;BME280_pressure;Samples;Min_cycle;Max_cycle;Signal;HPM_P1;HPM_P2
2020/12/22 00:01:39;;;;;;;10.63;8.88;;;;;;;-0.06;67.56;100956.36;1757998;81;21482;-36
2020/12/22 00:04:07;;;;;;;14.38;10.25;;;;;;;-0.05;67.36;100953.97;1758014;81;21187;-36
2020/12/22 00:06:38;;;;;;;13.43;9.45;;;;;;;-0.01;67.04;100949.22;1757944;81;21167;-36
2020/12/22 00:09:07;;;;;;;10.85;8.80;;;;;;;0.00;66.81;100961.47;1758173;81;21559;-36
2020/12/22 00:11:35;;;;;;;14.03;11.10;;;;;;;0.02;66.49;100955.09;1758000;81;21566;-36
2020/12/22 00:14:04;;;;;;;17.73;12.05;;;;;;;0.00;66.20;100947.36;1761387;80;21431;-36
2020/12/22 00:16:36;;;;;;;16.77;12.53;;;;;;;-0.02;66.32;100946.80;1769859;81;21155;-36
2020/12/22 00:19:05;;;;;;;17.77;12.93;;;;;;;-0.03;66.52;100941.98;1769948;80;21160;-36
2020/12/22 00:21:34;;;;;;;19.25;13.80;;;;;;;0.02;66.55;100946.56;1769966;81;21579;-36
2020/12/22 00:24:02;;;;;;;21.90;14.43;;;;;;;0.00;66.72;100952.70;1770031;81;21149;-36
2020/12/22 00:26:32;;;;;;;21.35;14.43;;;;;;;-0.01;66.85;100947.08;1770014;81;21388;-36
2020/12/22 00:29:00;;;;;;;22.70;15.90;;;;;;;-0.01;66.70;100947.08;1769981;81;21058;-36
2020/12/22 00:31:28;;;;;;;25.40;16.65;;;;;;;0.02;66.47;100941.23;1769953;81;21049;-36
2020/12/22 00:33:57;;;;;;;25.00;16.80;;;;;;;0.01;66.51;100943.62;1769884;81;21117;-36
2020/12/22 00:36:25;;;;;;;25.88;16.60;;;;;;;-0.04;66.66;100941.70;1769973;81;21137;-36
2020/12/22 00:38:55;;;;;;;18.10;13.35;;;;;;;-0.06;66.73;100937.70;1770057;81;21249;-36
2020/12/22 00:41:23;;;;;;;19.90;15.15;;;;;;;-0.12;67.05;100936.83;1769979;81;21041;-36
2020/12/22 00:43:52;;;;;;;20.12;13.80;;;;;;;-0.13;67.31;100935.22;1770010;81;20990;-36
2020/12/22 00:46:20;;;;;;;23.18;16.00;;;;;;;-0.16;67.58;100934.39;1769902;81;21204;-36
2020/12/22 00:48:49;;;;;;;28.83;19.07;;;;;;;-0.12;67.34;100932.02;1769883;81;21167;-36
2020/12/22 00:51:22;;;;;;;26.62;17.17;;;;;;;-0.17;67.34;100943.96;1769926;81;21249;-36
2020/12/22 00:53:52;;;;;;;21.48;16.12;;;;;;;-0.15;67.61;100939.20;1769910;81;21038;-36
2020/12/22 00:56:22;;;;;;;23.60;15.50;;;;;;;-0.23;67.62;100934.29;1770028;81;20979;-36
2020/12/22 00:58:50;;;;;;;27.07;17.50;;;;;;;-0.29;67.67;100931.31;1766162;79;21608;-36
2020/12/22 01:01:19;;;;;;;28.05;17.65;;;;;;;-0.39;67.81;100936.52;1801672;79;21181;-36
2020/12/22 01:03:47;;;;;;;31.75;19.07;;;;;;;-0.44;67.97;100941.27;1801468;79;21290;-36
2020/12/22 01:06:15;;;;;;;28.35;19.12;;;;;;;-0.48;67.96;100932.94;1801444;79;21143;-36
2020/12/22 01:08:44;;;;;;;28.93;18.93;;;;;;;-0.47;67.85;100935.89;1801868;79;21153;-36
2020/12/22 01:11:14;;;;;;;29.63;19.92;;;;;;;-0.50;67.59;100939.06;1801712;79;28320;-36
2020/12/22 01:13:44;;;;;;;36.53;22.00;;;;;;;-0.54;67.85;100937.14;1801615;79;21453;-39
2020/12/22 01:16:12;;;;;;;41.48;24.77;;;;;;;-0.56;67.77;100940.56;1801504;79;21255;-36
2020/12/22 01:18:43;;;;;;;40.00;24.50;;;;;;;-0.61;67.75;100939.97;1801465;79;21181;-36
2020/12/22 01:21:20;;;;;;;45.67;25.62;;;;;;;-0.59;67.83;100945.06;1801607;79;21169;-36
2020/12/22 01:23:57;;;;;;;43.50;26.10;;;;;;;-0.54;67.94;100939.28;1835885;78;22800;-36
2020/12/22 01:26:26;;;;;;;43.10;25.45;;;;;;;-0.56;67.83;100940.04;1808351;79;20992;-36
2020/12/22 01:28:55;;;;;;;37.08;22.10;;;;;;;-0.59;67.71;100944.54;1808258;79;21422;-35
2020/12/22 01:31:26;;;;;;;43.52;25.82;;;;;;;-0.53;67.47;100945.39;1808469;79;21016;-35
2020/12/22 01:33:54;;;;;;;47.78;25.20;;;;;;;-0.55;67.50;100937.66;1808346;79;21138;-35
2020/12/22 01:36:23;;;;;;;38.05;23.60;;;;;;;-0.50;67.49;100942.25;1808137;79;21012;-35
2020/12/22 01:38:51;;;;;;;38.38;24.00;;;;;;;-0.51;67.62;100938.77;1808234;79;21028;-35
2020/12/22 01:41:20;;;;;;;37.10;21.27;;;;;;;-0.49;67.41;100939.87;1808521;79;22092;-35
2020/12/22 01:44:16;;;;;;;38.60;22.90;;;;;;;-0.54;67.32;100934.48;1808155;79;20987;-35
2020/12/22 01:46:49;;;;;;;36.73;22.77;;;;;;;-0.53;67.47;100937.39;1808290;79;21546;-35
2020/12/22 01:49:23;;;;;;;36.63;22.22;;;;;;;-0.58;67.59;100934.14;1808271;79;21043;-35
2020/12/22 01:51:53;;;;;;;35.58;21.97;;;;;;;-0.56;67.78;100929.91;1808263;79;21138;-35
2020/12/22 01:54:22;;;;;;;34.43;20.77;;;;;;;-0.55;67.96;100931.53;1808317;79;21358;-35
2020/12/22 01:56:50;;;;;;;29.90;19.52;;;;;;;-0.50;67.74;100929.73;1808153;79;21158;-36
2020/12/22 01:59:19;;;;;;;28.98;18.67;;;;;;;-0.41;67.50;100922.11;1808233;79;20965;-35
2020/12/22 02:01:50;;;;;;;30.02;19.15;;;;;;;-0.41;67.49;100923.96;1808363;79;21127;-35
2020/12/22 02:04:18;;;;;;;28.12;18.07;;;;;;;-0.37;67.57;100922.41;1808530;79;21170;-35
2020/12/22 02:06:46;;;;;;;25.82;16.37;;;;;;;-0.34;67.65;100923.26;1808123;79;21199;-35
2020/12/22 02:09:15;;;;;;;25.55;15.45;;;;;;;-0.30;67.51;100925.70;1808181;79;21114;-35
2020/12/22 02:11:44;;;;;;;24.45;13.88;;;;;;;-0.30;67.33;100919.03;1808228;79;21131;-35
2020/12/22 02:14:12;;;;;;;18.77;13.90;;;;;;;-0.33;67.34;100919.52;1796601;79;21178;-35
2020/12/22 02:16:40;;;;;;;19.15;13.10;;;;;;;-0.34;67.25;100915.27;1776330;80;21202;-35
2020/12/22 02:19:10;;;;;;;;;;;;;;;-0.34;67.42;100917.93;1775529;80;21274;-35
2020/12/22 02:21:38;;;;;;;20.85;13.30;;;;;;;-0.28;67.40;100909.72;1776053;80;20291;-35
2020/12/22 02:24:07;;;;;;;19.02;13.30;;;;;;;-0.41;67.53;100907.45;1766512;80;21028;-35
2020/12/22 02:26:36;;;;;;;18.00;13.25;;;;;;;-0.42;67.67;100911.69;1765916;81;21170;-35
2020/12/22 02:29:58;;;;;;;18.52;12.60;;;;;;;-0.41;67.66;100907.97;1775685;79;21820;-36
2020/12/22 02:32:26;;;;;;;15.98;11.73;;;;;;;-0.48;67.78;100913.48;1748465;82;21004;-35
2020/12/22 02:34:54;;;;;;;17.15;11.70;;;;;;;-0.41;67.77;100904.79;1748541;82;21515;-35
2020/12/22 02:37:23;;;;;;;14.15;10.78;;;;;;;-0.36;67.61;100906.70;1748350;82;21040;-35
2020/12/22 02:39:51;;;;;;;15.93;11.78;;;;;;;-0.36;67.47;100904.84;1748572;82;21310;-35
2020/12/22 02:42:21;;;;;;;14.58;11.40;;;;;;;-0.33;67.60;100904.34;1748446;82;21052;-35
2020/12/22 02:44:49;;;;;;;12.20;8.83;;;;;;;-0.28;67.74;100896.40;1748789;82;21020;-35
2020/12/22 02:47:18;;;;;;;13.60;10.75;;;;;;;-0.24;67.58;100891.40;1745063;82;21280;-45
2020/12/22 02:49:46;;;;;;;13.18;10.85;;;;;;;-0.43;67.42;100870.92;1748528;82;21167;-35
2020/12/22 02:52:15;;;;;;;14.58;10.60;;;;;;;-0.30;67.47;100889.72;1748455;82;20985;-35
2020/12/22 02:54:44;;;;;;;14.75;10.95;;;;;;;-0.29;67.63;100888.13;1748831;82;21616;-35
2020/12/22 02:57:12;;;;;;;14.87;10.85;;;;;;;-0.27;67.55;100891.35;1748410;82;21158;-35
2020/12/22 02:59:41;;;;;;;14.75;10.10;;;;;;;-0.28;67.56;100893.73;1748491;82;21380;-35
2020/12/22 03:02:09;;;;;;;14.23;10.80;;;;;;;-0.29;67.70;100895.34;1748389;82;21138;-35
2020/12/22 03:04:38;;;;;;;12.18;9.50;;;;;;;-0.29;67.87;100896.67;1748341;82;21460;-35
2020/12/22 03:07:06;;;;;;;13.58;9.68;;;;;;;-0.27;67.50;100902.02;1748478;82;21162;-35
2020/12/22 03:09:35;;;;;;;12.10;9.45;;;;;;;-0.27;67.70;100901.20;1748429;82;21151;-35
2020/12/22 03:12:03;;;;;;;13.45;9.43;;;;;;;-0.21;67.54;100898.36;1748463;82;21194;-35
2020/12/22 03:14:32;;;;;;;12.47;9.58;;;;;;;-0.14;67.33;100895.47;1733460;81;21024;-35
2020/12/22 03:17:01;;;;;;;12.68;9.40;;;;;;;-0.13;67.18;100899.75;1718747;83;21147;-35
2020/12/22 03:19:29;;;;;;;10.58;8.45;;;;;;;-0.10;67.14;100900.05;1718823;83;21028;-36
2020/12/22 03:21:57;;;;;;;12.28;8.78;;;;;;;-0.05;66.98;100900.10;1718675;83;21131;-36
2020/12/22 03:24:26;;;;;;;12.15;8.93;;;;;;;-0.03;66.87;100899.86;1718582;83;21341;-35
2020/12/22 03:26:54;;;;;;;12.65;9.48;;;;;;;-0.04;66.55;100896.91;1718574;83;21032;-35
2020/12/22 03:29:22;;;;;;;12.50;9.90;;;;;;;-0.10;66.64;100891.28;1715494;83;21175;-35
2020/12/22 03:31:51;;;;;;;14.23;9.00;;;;;;;-0.11;67.00;100888.33;1713683;83;21191;-36
2020/12/22 03:34:19;;;;;;;12.50;9.13;;;;;;;-0.13;66.76;100888.56;1713846;83;21173;-35
2020/12/22 03:36:52;;;;;;;11.48;8.80;;;;;;;-0.11;66.91;100883.00;1713680;83;21284;-35
2020/12/22 03:39:20;;;;;;;10.30;8.65;;;;;;;-0.06;67.15;100885.71;1713657;83;21155;-35
2020/12/22 03:41:49;;;;;;;11.08;8.58;;;;;;;-0.04;66.48;100881.72;1713230;83;21158;-35
2020/12/22 03:44:17;;;;;;;15.32;9.70;;;;;;;-0.06;66.60;100887.05;1713218;83;21136;-35
2020/12/22 03:46:49;;;;;;;9.95;8.43;;;;;;;-0.04;66.62;100885.72;1713146;83;21138;-35
2020/12/22 03:49:17;;;;;;;12.18;9.40;;;;;;;-0.03;66.81;100879.87;1713296;83;21456;-36
2020/12/22 03:51:46;;;;;;;10.65;8.58;;;;;;;0.00;66.79;100879.38;1713242;83;21190;-36
2020/12/22 03:54:15;;;;;;;10.98;8.85;;;;;;;0.01;66.72;100880.97;1713493;83;21056;-35
2020/12/22 03:56:43;;;;;;;9.25;7.92;;;;;;;0.08;66.59;100876.25;1713241;83;21056;-35
2020/12/22 03:59:11;;;;;;;12.05;7.70;;;;;;;0.06;66.54;100877.02;1713429;82;21127;-35
2020/12/22 04:01:39;;;;;;;12.07;8.30;;;;;;;-0.03;66.46;100871.87;1713126;83;21573;-35
2020/12/22 04:04:08;;;;;;;10.98;8.20;;;;;;;-0.06;66.54;100875.05;1713139;83;21150;-35
2020/12/22 04:06:37;;;;;;;11.63;8.30;;;;;;;-0.12;66.71;100867.53;1713154;83;21139;-36
2020/12/22 04:09:05;;;;;;;10.55;8.60;;;;;;;-0.12;66.86;100864.86;1713146;83;21171;-35
2020/12/22 04:11:34;;;;;;;11.15;8.70;;;;;;;-0.04;66.88;100860.92;1713434;83;21179;-36
2020/12/22 04:14:02;;;;;;;11.55;8.30;;;;;;;-0.01;66.93;100868.44;1713235;82;21210;-35
2020/12/22 04:16:32;;;;;;;9.20;7.85;;;;;;;0.03;66.87;100866.06;1713313;83;21206;-36
2020/12/22 04:19:00;;;;;;;10.10;7.53;;;;;;;0.03;67.00;100869.53;1713297;83;21147;-35
2020/12/22 04:21:30;;;;;;;8.98;7.62;;;;;;;0.07;66.78;100872.48;1713127;83;21414;-35
2020/12/22 04:23:58;;;;;;;10.80;7.95;;;;;;;0.09;66.50;100865.05;1713360;83;21182;-35
2020/12/22 04:26:27;;;;;;;8.68;7.78;;;;;;;0.08;65.99;100865.58;1713228;83;21414;-36
2020/12/22 04:28:55;;;;;;;8.85;7.25;;;;;;;0.03;66.04;100865.53;1710917;83;21207;-35
2020/12/22 04:31:23;;;;;;;8.65;7.25;;;;;;;0.02;66.20;100865.78;1705275;84;21028;-35
2020/12/22 04:33:55;;;;;;;10.05;7.85;;;;;;;0.02;66.24;100871.92;1705374;84;21161;-35
2020/12/22 04:36:26;;;;;;;8.20;7.28;;;;;;;0.07;66.13;100866.63;1705340;84;21150;-35
2020/12/22 04:38:55;;;;;;;9.15;7.70;;;;;;;0.04;65.96;100858.34;1705329;84;21292;-35
2020/12/22 04:41:23;;;;;;;8.65;7.20;;;;;;;0.04;66.00;100847.68;1705191;84;21084;-35
2020/12/22 04:43:52;;;;;;;8.73;7.10;;;;;;;-0.03;66.26;100850.55;1705314;84;21120;-36
2020/12/22 04:46:22;;;;;;;8.63;6.80;;;;;;;0.03;66.23;100850.06;1705604;84;21585;-35
2020/12/22 04:48:54;;;;;;;8.90;7.03;;;;;;;-0.03;66.19;100854.54;1705517;84;21864;-36
2020/12/22 04:51:23;;;;;;;9.08;7.15;;;;;;;-0.03;66.40;100843.87;1705397;84;22114;-36
2020/12/22 04:53:53;;;;;;;8.10;6.60;;;;;;;-0.06;66.46;100849.20;1703589;84;21214;-36
2020/12/22 04:56:21;;;;;;;8.73;7.10;;;;;;;-0.02;66.33;100840.16;1705438;84;21179;-35
2020/12/22 04:58:50;;;;;;;8.35;6.65;;;;;;;-0.03;66.24;100846.55;1705298;84;21165;-35
2020/12/22 05:01:18;;;;;;;11.38;7.12;;;;;;;-0.07;66.14;100850.77;1705498;84;21666;-35
2020/12/22 05:03:47;;;;;;;7.97;6.80;;;;;;;-0.11;66.24;100844.34;1705282;84;21396;-36
2020/12/22 05:06:15;;;;;;;8.85;7.12;;;;;;;-0.16;66.39;100840.30;1705187;84;21183;-35
2020/12/22 05:08:45;;;;;;;9.23;7.37;;;;;;;-0.15;66.54;100844.58;1705262;84;21206;-35
2020/12/22 05:11:17;;;;;;;8.08;6.80;;;;;;;-0.12;66.51;100841.40;1705398;84;22170;-35
2020/12/22 05:13:47;;;;;;;8.68;7.35;;;;;;;-0.10;66.51;100832.08;1705293;82;21107;-35
2020/12/22 05:16:16;;;;;;;9.18;6.83;;;;;;;-0.12;66.74;100832.88;1705279;83;21171;-35
2020/12/22 05:18:44;;;;;;;7.60;6.75;;;;;;;-0.11;66.46;100831.02;1705595;82;21166;-35
2020/12/22 05:21:14;;;;;;;9.20;7.37;;;;;;;-0.16;66.53;100840.30;1684728;84;21175;-35
2020/12/22 05:23:48;;;;;;;10.35;7.58;;;;;;;-0.18;66.64;100838.40;1705261;84;21163;-35
2020/12/22 05:26:22;;;;;;;8.08;6.85;;;;;;;-0.21;66.63;100845.05;1705294;84;21115;-36
2020/12/22 05:28:50;;;;;;;10.90;7.55;;;;;;;-0.20;66.49;100851.19;1705242;82;21270;-36
2020/12/22 05:31:18;;;;;;;11.48;7.65;;;;;;;-0.25;66.36;100847.95;1705301;84;21139;-35
2020/12/22 05:33:47;;;;;;;10.20;7.70;;;;;;;-0.26;66.58;100841.53;1705213;84;21135;-35
2020/12/22 05:36:16;;;;;;;9.63;7.62;;;;;;;-0.32;66.57;100846.52;1705405;84;21547;-36
2020/12/22 05:38:44;;;;;;;9.75;7.72;;;;;;;-0.36;66.72;100842.23;1705213;84;21179;-35
2020/12/22 05:41:12;;;;;;;9.50;7.17;;;;;;;-0.37;66.64;100843.28;1685290;84;21220;-35
2020/12/22 05:43:42;;;;;;;8.30;6.45;;;;;;;-0.39;66.43;100836.61;1705176;84;21163;-35
2020/12/22 05:46:10;;;;;;;9.43;7.30;;;;;;;-0.45;66.32;100839.22;1705508;84;21566;-36
2020/12/22 05:48:39;;;;;;;9.05;7.15;;;;;;;-0.54;66.71;100843.39;1705148;84;21162;-35
2020/12/22 05:51:08;;;;;;;9.05;7.33;;;;;;;-0.54;66.78;100845.24;1705317;84;21143;-36
2020/12/22 05:53:43;;;;;;;9.70;7.40;;;;;;;-0.58;66.69;100846.25;1700255;83;21205;-35
2020/12/22 05:56:18;;;;;;;8.68;7.22;;;;;;;-0.58;67.00;100850.23;1705271;84;21179;-35
2020/12/22 05:58:46;;;;;;;10.50;7.50;;;;;;;-0.58;67.07;100849.47;1705245;84;21167;-36
2020/12/22 06:01:18;;;;;;;10.85;7.75;;;;;;;-0.52;67.24;100846.59;1705289;84;21188;-35
2020/12/22 06:03:46;;;;;;;9.33;7.40;;;;;;;-0.51;67.05;100846.87;1684683;84;21146;-35
2020/12/22 06:06:14;;;;;;;9.15;7.30;;;;;;;-0.50;67.05;100845.02;1705267;84;21251;-35
2020/12/22 06:08:43;;;;;;;9.95;7.03;;;;;;;-0.46;67.06;100845.59;1705137;84;21147;-35
2020/12/22 06:11:11;;;;;;;9.85;7.70;;;;;;;-0.42;66.79;100847.75;1705283;84;21126;-35
2020/12/22 06:13:40;;;;;;;9.65;7.92;;;;;;;-0.39;66.58;100845.94;1709531;82;21602;-35
2020/12/22 06:16:21;;;;;;;13.03;7.65;;;;;;;-0.39;66.77;100842.74;1734634;82;21155;-35
2020/12/22 06:18:53;;;;;;;7.53;6.28;;;;;;;-0.34;66.57;100836.66;1734699;82;21265;-35
2020/12/22 06:21:22;;;;;;;9.93;6.50;;;;;;;-0.36;66.39;100835.57;1734586;82;21119;-35
2020/12/22 06:23:50;;;;;;;8.85;6.72;;;;;;;-0.36;66.32;100835.57;1734596;82;21174;-35
2020/12/22 06:26:21;;;;;;;7.13;5.60;;;;;;;-0.34;66.36;100838.00;1734867;82;21155;-35
2020/12/22 06:28:49;;;;;;;8.85;6.25;;;;;;;-0.35;66.36;100833.72;1734767;82;21800;-35
2020/12/22 06:31:20;;;;;;;7.65;6.35;;;;;;;-0.39;66.51;100832.09;1734646;82;21539;-35
2020/12/22 06:33:49;;;;;;;7.55;6.30;;;;;;;-0.40;66.07;100828.33;1734588;82;21017;-36
2020/12/22 06:36:19;;;;;;;8.38;6.47;;;;;;;-0.43;66.27;100825.62;1734585;82;20981;-36
2020/12/22 06:39:01;;;;;;;10.30;5.72;;;;;;;-0.45;66.27;100824.56;1734589;82;21603;-35
2020/12/22 06:41:41;;;;;;;6.70;5.87;;;;;;;-0.49;66.03;100832.78;1734588;82;21167;-35
2020/12/22 06:44:23;;;;;;;6.83;5.53;;;;;;;-0.51;66.06;100832.22;1734803;82;21378;-36
2020/12/22 06:46:58;;;;;;;8.68;5.78;;;;;;;-0.56;65.86;100830.02;1734526;82;20985;-36
2020/12/22 06:49:53;;;;;;;5.92;5.33;;;;;;;-0.54;65.88;100831.92;1734576;82;21040;-36
2020/12/22 06:52:38;;;;;;;6.42;5.67;;;;;;;-0.52;66.07;100834.60;1734565;82;21028;-36
2020/12/22 06:55:09;;;;;;;7.33;6.30;;;;;;;-0.49;65.85;100828.79;1734021;82;21132;-36
2020/12/22 06:57:50;;;;;;;8.13;6.30;;;;;;;-0.47;65.66;100827.19;1734941;82;22050;-36
2020/12/22 07:00:33;;;;;;;6.85;5.75;;;;;;;-0.48;65.39;100825.05;1734569;82;21642;-36
2020/12/22 07:03:14;;;;;;;8.55;6.30;;;;;;;-0.50;65.74;100818.38;1733237;82;21219;-36
2020/12/22 07:05:45;;;;;;;9.18;6.25;;;;;;;-0.49;66.03;100823.47;1734689;82;22410;-36
2020/12/22 07:08:16;;;;;;;7.85;6.10;;;;;;;-0.46;66.07;100820.81;1734588;82;21173;-36
2020/12/22 07:10:48;;;;;;;7.90;6.30;;;;;;;-0.44;65.66;100805.39;1710109;82;21409;-36
2020/12/22 07:13:17;;;;;;;9.08;7.28;;;;;;;-0.46;66.04;100806.97;1705258;84;21164;-36
2020/12/22 07:15:49;;;;;;;9.85;6.62;;;;;;;-0.42;66.00;100811.78;1686008;84;20988;-36
2020/12/22 07:18:20;;;;;;;7.85;6.65;;;;;;;-0.51;65.62;100808.25;1705591;84;21164;-36
2020/12/22 07:20:49;;;;;;;9.70;7.58;;;;;;;-0.52;65.73;100806.63;1679179;85;21167;-36
2020/12/22 07:23:17;;;;;;;9.45;7.62;;;;;;;-0.56;65.88;100813.52;1636214;85;21583;-36
2020/12/22 07:25:46;;;;;;;10.32;8.00;;;;;;;-0.57;66.05;100803.91;1676954;85;21203;-36
2020/12/22 07:28:16;;;;;;;11.08;8.30;;;;;;;-0.59;66.10;100811.37;1676871;85;21044;-36
2020/12/22 07:30:44;;;;;;;10.98;8.88;;;;;;;-0.61;66.37;100810.80;1676895;84;21182;-36
2020/12/22 07:33:14;;;;;;;11.40;8.20;;;;;;;-0.59;66.31;100801.23;1677329;85;22064;-36
2020/12/22 07:35:42;;;;;;;9.50;6.35;;;;;;;-0.59;66.02;100799.38;1676906;85;21899;-36
2020/12/22 07:38:11;;;;;;;9.18;7.00;;;;;;;-0.59;65.06;100804.71;1676879;85;21183;-36
2020/12/22 07:40:42;;;;;;;8.53;6.33;;;;;;;-0.60;65.19;100799.09;1677003;85;21178;-36
2020/12/22 07:43:12;;;;;;;6.87;5.40;;;;;;;-0.68;65.48;100785.44;1676993;85;21202;-36
2020/12/22 07:45:49;;;;;;;5.62;4.70;;;;;;;-0.60;65.52;100797.77;1677049;85;21127;-36
2020/12/22 07:48:19;;;;;;;7.10;5.65;;;;;;;-0.61;65.44;100798.01;1676958;85;21374;-36
2020/12/22 07:50:53;;;;;;;6.83;5.53;;;;;;;-0.60;65.46;100799.09;1676919;85;21202;-36
2020/12/22 07:53:22;;;;;;;7.17;6.17;;;;;;;-0.60;65.55;100804.95;1677077;85;21127;-36
2020/12/22 07:55:52;;;;;;;8.13;6.37;;;;;;;-0.59;65.59;100804.71;1676766;85;21218;-36
2020/12/22 07:58:20;;;;;;;8.63;6.60;;;;;;;-0.56;65.33;100802.06;1677029;84;21163;-36
2020/12/22 08:00:51;;;;;;;9.13;7.22;;;;;;;-0.55;65.53;100805.81;1676972;84;21441;-36
2020/12/22 08:03:19;;;;;;;8.45;7.12;;;;;;;-0.48;65.03;100807.73;1671793;84;21019;-36
2020/12/22 08:06:03;;;;;;;8.60;6.92;;;;;;;-0.46;65.04;100805.63;1676995;85;21155;-36
2020/12/22 08:08:32;;;;;;;9.05;7.10;;;;;;;-0.42;65.03;100803.79;1676970;84;21618;-36
2020/12/22 08:11:00;;;;;;;9.73;7.65;;;;;;;-0.42;65.29;100806.45;1676958;85;21170;-36
2020/12/22 08:13:32;;;;;;;9.58;7.60;;;;;;;-0.39;65.31;100803.30;1675975;84;21391;-36
2020/12/22 08:16:00;;;;;;;11.38;8.23;;;;;;;-0.42;65.25;100800.59;1657719;86;21071;-36
2020/12/22 08:18:31;;;;;;;9.73;7.55;;;;;;;-0.42;65.37;100799.27;1662686;86;21601;-36
2020/12/22 08:21:00;;;;;;;;;;;;;;;-0.48;65.54;100802.93;1660281;86;21199;-36
2020/12/22 08:23:29;;;;;;;10.13;7.97;;;;;;;-0.50;65.76;100795.20;1657854;86;20357;-36
2020/12/22 08:26:01;;;;;;;10.60;8.30;;;;;;;-0.53;66.24;100787.70;1662679;86;22555;-36
2020/12/22 08:28:30;;;;;;;9.15;7.50;;;;;;;-0.44;66.19;100788.86;1657756;86;21139;-36
2020/12/22 08:31:12;;;;;;;10.85;8.15;;;;;;;-0.33;65.96;100791.09;1677644;84;21191;-36
2020/12/22 08:33:41;;;;;;;10.15;7.53;;;;;;;-0.31;65.58;100781.52;1667497;86;21194;-36
2020/12/22 08:36:11;;;;;;;9.88;7.45;;;;;;;-0.34;65.44;100780.19;1690006;84;21134;-36
2020/12/22 08:38:40;;;;;;;8.18;6.95;;;;;;;-0.40;65.39;100776.38;1690181;84;22124;-36
2020/12/22 08:41:21;;;;;;;9.53;7.80;;;;;;;-0.48;65.77;100783.76;1690062;84;21210;-36
2020/12/22 08:43:52;;;;;;;;;;;;;;;-0.51;65.96;100781.61;1692471;84;20976;-36
2020/12/22 08:46:23;;;;;;;7.05;5.87;;;;;;;-0.60;65.53;100775.13;1690044;84;20142;-35
2020/12/22 08:48:51;;;;;;;7.78;6.12;;;;;;;-0.70;66.10;100768.89;1689959;84;21171;-36
2020/12/22 08:51:26;;;;;;;8.30;7.05;;;;;;;-0.67;66.36;100767.85;1689978;84;21440;-36
2020/12/22 08:53:56;;;;;;;8.38;7.03;;;;;;;-0.61;66.26;100760.72;1689943;84;21030;-36
2020/12/22 08:56:24;;;;;;;9.00;7.30;;;;;;;-0.59;66.30;100770.08;1690106;84;21165;-36
2020/12/22 08:58:59;;;;;;;10.10;6.60;;;;;;;-0.60;66.44;100761.81;1690028;84;21071;-36
2020/12/22 09:01:32;;;;;;;7.95;6.65;;;;;;;-0.55;66.41;100764.52;1690025;84;21162;-36
2020/12/22 09:04:01;;;;;;;9.50;7.15;;;;;;;-0.57;66.21;100755.16;1677861;84;21382;-36
2020/12/22 09:06:36;;;;;;;8.10;6.72;;;;;;;-0.58;66.29;100750.92;1689967;84;21459;-36
2020/12/22 09:09:11;;;;;;;8.63;6.70;;;;;;;-0.57;66.21;100745.84;1689551;84;21616;-36
2020/12/22 09:11:41;;;;;;;8.48;6.55;;;;;;;-0.58;66.37;100747.70;1690055;84;21665;-36
2020/12/22 09:14:12;;;;;;;;;;;;;;;-0.51;66.32;100741.66;1692573;83;21118;-35
2020/12/22 09:16:45;;;;;;;9.13;7.00;;;;;;;-0.51;66.22;100742.17;1689961;84;21379;-36
2020/12/22 09:19:15;;;;;;;9.90;6.90;;;;;;;-0.57;66.45;100729.34;1690047;84;21162;-36
2020/12/22 09:21:45;;;;;;;9.45;7.25;;;;;;;-0.56;66.68;100726.15;1689850;84;21171;-36
2020/12/22 09:24:18;;;;;;;8.88;6.70;;;;;;;-0.49;66.23;100724.09;1690039;84;21500;-36
2020/12/22 09:26:58;;;;;;;9.78;6.80;;;;;;;-0.46;66.27;100719.06;1689982;84;21174;-36
2020/12/22 09:29:27;;;;;;;8.25;7.20;;;;;;;-0.47;66.13;100710.78;1690235;84;21259;-36
2020/12/22 09:31:56;;;;;;;9.85;7.10;;;;;;;-0.45;66.24;100712.68;1689923;84;21182;-36
2020/12/22 09:34:25;;;;;;;8.48;7.05;;;;;;;-0.46;66.43;100717.72;1690054;84;21605;-36
2020/12/22 09:36:59;;;;;;;7.80;5.85;;;;;;;-0.43;66.18;100720.39;1690104;84;21039;-36
2020/12/22 09:39:28;;;;;;;6.15;5.17;;;;;;;-0.40;65.85;100725.23;1689991;84;21202;-36
2020/12/22 09:41:57;;;;;;;6.72;5.22;;;;;;;-0.50;65.71;100706.50;1690004;84;21210;-36
2020/12/22 09:44:25;;;;;;;6.80;4.97;;;;;;;-0.51;65.91;100717.68;1684652;84;21183;-36
2020/12/22 09:46:55;;;;;;;6.70;5.30;;;;;;;-0.49;65.99;100707.59;1690068;84;21467;-36
2020/12/22 09:49:28;;;;;;;5.62;4.60;;;;;;;-0.47;66.18;100705.98;1689954;84;21644;-36
2020/12/22 09:51:58;;;;;;;4.53;3.87;;;;;;;-0.44;65.81;100703.61;1690010;84;21214;-36
2020/12/22 09:54:26;;;;;;;;;;;;;;;-0.52;65.94;100698.75;1692625;84;21444;-36
2020/12/22 09:56:55;;;;;;;4.47;3.67;;;;;;;-0.56;65.72;100692.33;1689950;84;20281;-36
2020/12/22 09:59:24;;;;;;;5.10;4.55;;;;;;;-0.67;66.22;100691.95;1690264;84;21065;-36
2020/12/22 10:01:55;;;;;;;6.97;4.28;;;;;;;-0.65;66.02;100681.87;1690117;84;21085;-36
2020/12/22 10:04:25;;;;;;;5.08;3.85;;;;;;;-0.64;66.27;100672.83;1664936;84;21135;-36
2020/12/22 10:06:53;;;;;;;;;;;;;;;-0.60;66.50;100673.11;1692477;84;21270;-36
2020/12/22 10:09:21;;;;;;;5.28;4.45;;;;;;;-0.53;66.65;100656.38;1689932;84;20163;-36
2020/12/22 10:11:51;;;;;;;9.88;5.50;;;;;;;-0.52;66.85;100661.98;1690380;83;21164;-36
2020/12/22 10:14:19;;;;;;;8.33;5.97;;;;;;;-0.38;66.24;100657.02;1702161;83;21637;-36
2020/12/22 10:16:47;;;;;;;7.83;6.03;;;;;;;-0.32;65.94;100652.02;1718695;83;21130;-36
2020/12/22 10:19:17;;;;;;;5.30;4.47;;;;;;;-0.32;65.87;100645.35;1718969;83;22026;-36
2020/12/22 10:21:48;;;;;;;4.87;3.58;;;;;;;-0.34;65.59;100648.82;1718718;83;21621;-36
2020/12/22 10:24:19;;;;;;;4.97;4.00;;;;;;;-0.34;65.44;100647.48;1715311;83;21024;-36
2020/12/22 10:26:47;;;;;;;5.70;4.47;;;;;;;-0.34;65.48;100651.48;1718685;83;21566;-36
2020/12/22 10:29:16;;;;;;;5.08;3.98;;;;;;;-0.33;65.77;100643.73;1718820;83;21123;-36
2020/12/22 10:31:47;;;;;;;7.35;4.30;;;;;;;-0.37;65.81;100649.31;1711648;83;22140;-36
2020/12/22 10:34:16;;;;;;;5.05;4.45;;;;;;;-0.37;65.67;100634.66;1705317;84;21124;-36
2020/12/22 10:36:46;;;;;;;7.75;4.50;;;;;;;-0.35;65.43;100645.88;1705144;84;21135;-36
2020/12/22 10:39:16;;;;;;;6.60;5.50;;;;;;;-0.39;65.54;100644.78;1705373;83;21171;-36
2020/12/22 10:41:45;;;;;;;7.20;5.33;;;;;;;-0.37;65.86;100635.47;1705376;84;21625;-36
2020/12/22 10:44:13;;;;;;;7.62;5.97;;;;;;;-0.34;66.06;100630.17;1705372;84;21223;-36
2020/12/22 10:46:47;;;;;;;15.40;9.00;;;;;;;-0.25;65.96;100629.44;1705155;84;21764;-36
2020/12/22 10:49:15;;;;;;;13.98;9.20;;;;;;;-0.19;65.58;100631.58;1705315;84;21138;-36
2020/12/22 10:51:44;;;;;;;8.18;6.17;;;;;;;-0.14;65.70;100623.08;1705328;84;21147;-36
2020/12/22 10:54:13;;;;;;;7.15;4.92;;;;;;;-0.14;65.75;100624.94;1705490;84;21211;-36
2020/12/22 10:56:44;;;;;;;6.62;4.90;;;;;;;-0.11;65.63;100620.45;1705399;84;21350;-36
2020/12/22 10:59:12;;;;;;;5.70;5.03;;;;;;;-0.15;65.39;100618.84;1705309;83;21183;-36
2020/12/22 11:01:41;;;;;;;5.90;4.22;;;;;;;-0.12;65.45;100620.17;1705400;84;21191;-36
2020/12/22 11:04:10;;;;;;;6.47;5.15;;;;;;;-0.09;65.69;100614.31;1705746;84;22131;-36
2020/12/22 11:09:13;;;;;;;7.03;5.45;;;;;;;-0.10;65.45;100597.52;1705492;84;21385;-36
2020/12/22 11:11:46;;;;;;;7.12;5.40;;;;;;;-0.07;65.28;100597.55;1705362;84;21143;-35
2020/12/22 11:14:16;;;;;;;6.95;5.58;;;;;;;-0.03;65.40;100589.30;1705414;84;21140;-36
2020/12/22 11:16:44;;;;;;;6.95;5.00;;;;;;;0.00;65.13;100583.47;1705199;84;22178;-36
2020/12/22 11:19:13;;;;;;;6.95;5.75;;;;;;;0.01;65.25;100583.71;1705480;84;21179;-36
2020/12/22 11:21:47;;;;;;;7.15;5.10;;;;;;;0.05;65.33;100583.45;1705320;84;21254;-36
2020/12/22 11:24:15;;;;;;;6.72;5.28;;;;;;;0.09;65.41;100579.23;1705453;84;21151;-36
2020/12/22 11:26:43;;;;;;;9.23;5.37;;;;;;;0.12;65.27;100580.03;1705402;84;21029;-36
2020/12/22 11:29:11;;;;;;;8.53;5.40;;;;;;;0.14;65.11;100572.59;1704927;84;21159;-36
2020/12/22 11:31:40;;;;;;;8.08;5.92;;;;;;;0.14;65.14;100573.92;1681138;84;21190;-36
2020/12/22 11:34:10;;;;;;;;;;;;;;;0.09;65.32;100569.91;1692681;84;22632;-36
2020/12/22 11:36:38;;;;;;;5.78;4.78;;;;;;;-0.25;65.27;100514.05;1689886;84;20269;-36
2020/12/22 11:39:06;;;;;;;6.58;5.20;;;;;;;0.11;65.47;100574.42;1690088;84;21146;-36